Time;durP1;ratioP1;P1;durP2;ratioP2;P2;SDS_P1;SDS_P2;PMS_P1;PMS_P2;Temp;Humidity;BMP_temperature;BMP_pressure;BME280_temperature;BME280_humidity;BME280_pressure;Samples;Min_cycle;Max_cycle;Signal;HPM_P1;HPM_P2
2021/07/06 00:01:51;;;;;;;;;;;21.50;75.00;;;;;;4992569;28;1373;-73
2021/07/06 00:04:16;;;;;;;;;;;21.50;75.00;;;;;;4992177;28;1653;-73
2021/07/06 00:06:42;;;;;;;;;;;21.50;75.00;;;;;;4958850;28;1426;-74
2021/07/06 00:09:07;;;;;;;;;;;21.50;75.00;;;;;;4992935;28;1554;-73
2021/07/06 00:11:33;;;;;;;;;;;21.50;75.00;;;;;;4991646;28;1567;-70
2021/07/06 00:13:58;;;;;;;;;;;21.50;75.00;;;;;;4992093;28;2002;-70
2021/07/06 00:16:24;;;;;;;;;;;21.40;75.00;;;;;;4992231;28;1660;-70
2021/07/06 00:18:49;;;;;;;;;;;21.50;75.00;;;;;;4992487;28;1210;-70
2021/07/06 00:21:14;;;;;;;;;;;21.50;75.00;;;;;;4992868;28;1529;-70
2021/07/06 00:23:40;;;;;;;;;;;21.50;75.00;;;;;;4978362;28;1141;-70
2021/07/06 00:26:05;;;;;;;;;;;21.50;75.00;;;;;;4978731;28;1191;-71
2021/07/06 00:28:31;;;;;;;;;;;21.50;75.00;;;;;;4996541;28;1684;-71
2021/07/06 00:30:57;;;;;;;;;;;21.50;75.00;;;;;;4995170;28;1156;-71
2021/07/06 00:33:22;;;;;;;;;;;21.50;75.00;;;;;;4994616;28;1961;-71
2021/07/06 00:35:47;;;;;;;;;;;21.50;75.00;;;;;;4996481;28;1170;-71
2021/07/06 00:38:13;;;;;;;;;;;21.50;75.00;;;;;;4995733;28;1624;-71
2021/07/06 00:40:38;;;;;;;;;;;21.50;75.00;;;;;;4996537;28;1124;-71
2021/07/06 00:43:04;;;;;;;;;;;21.50;75.00;;;;;;4978126;28;1717;-71
2021/07/06 00:45:29;;;;;;;;;;;21.50;75.00;;;;;;4996070;28;1642;-71
2021/07/06 00:47:56;;;;;;;;;;;21.50;75.00;;;;;;4978905;28;1278;-71
2021/07/06 00:50:22;;;;;;;;;;;21.50;75.00;;;;;;4978739;28;1342;-71
2021/07/06 00:52:48;;;;;;;;;;;21.50;75.00;;;;;;4977959;28;1902;-71
2021/07/06 00:55:14;;;;;;;;;;;21.40;75.00;;;;;;4978080;28;1177;-71
2021/07/06 00:57:39;;;;;;;;;;;21.50;75.00;;;;;;4995963;28;1319;-71
2021/07/06 01:00:07;;;;;;;;;;;21.50;75.00;;;;;;4995864;28;1395;-71
2021/07/06 01:02:33;;;;;;;;;;;21.40;74.90;;;;;;4995947;28;1405;-71
2021/07/06 01:04:58;;;;;;;;;;;21.40;74.90;;;;;;4978280;28;1378;-71
2021/07/06 01:07:24;;;;;;;;;;;21.50;75.00;;;;;;4995725;28;1451;-72
2021/07/06 01:09:49;;;;;;;;;;;21.50;75.00;;;;;;4978646;28;1279;-70
2021/07/06 01:12:15;;;;;;;;;;;21.40;75.00;;;;;;4994511;28;1903;-70
2021/07/06 01:14:40;;;;;;;;;;;21.50;75.00;;;;;;4993726;28;1403;-71
2021/07/06 01:17:06;;;;;;;;;;;21.40;74.90;;;;;;4995258;28;1218;-70
2021/07/06 01:19:31;;;;;;;;;;;21.40;75.00;;;;;;4978060;28;1614;-70
2021/07/06 01:22:01;;;;;;;;;;;21.40;74.90;;;;;;4995395;28;1018;-70
2021/07/06 01:24:26;;;;;;;;;;;21.40;75.70;;;;;;4977031;28;1354;-70
2021/07/06 01:26:52;;;;;;;;;;;21.40;74.90;;;;;;4994891;28;1655;-71
2021/07/06 01:29:17;;;;;;;;;;;21.40;74.90;;;;;;4995457;28;1216;-71
2021/07/06 01:31:49;;;;;;;;;;;21.50;75.00;;;;;;4995446;28;1614;-70
2021/07/06 01:34:15;;;;;;;;;;;21.40;74.90;;;;;;4994035;28;1907;-71
2021/07/06 01:36:40;;;;;;;;;;;21.40;75.00;;;;;;4977719;28;1387;-71
2021/07/06 01:39:05;;;;;;;;;;;21.40;75.00;;;;;;4975111;28;1413;-71
2021/07/06 01:41:31;;;;;;;;;;;21.40;75.00;;;;;;4993877;28;1203;-72
2021/07/06 01:43:56;;;;;;;;;;;21.40;75.00;;;;;;4994447;28;926;-71
2021/07/06 01:46:22;;;;;;;;;;;21.40;75.00;;;;;;4977767;28;1473;-71
2021/07/06 01:48:47;;;;;;;;;;;21.40;74.90;;;;;;4976925;28;1358;-71
2021/07/06 01:51:13;;;;;;;;;;;21.40;75.00;;;;;;4977411;28;1459;-71
2021/07/06 01:53:38;;;;;;;;;;;21.40;75.00;;;;;;4993591;28;1962;-70
2021/07/06 01:56:04;;;;;;;;;;;21.40;74.90;;;;;;4994742;28;1397;-70
2021/07/06 01:58:32;;;;;;;;;;;21.40;75.00;;;;;;4977560;28;1454;-70
2021/07/06 02:00:58;;;;;;;;;;;21.40;75.00;;;;;;4993718;28;1786;-71
2021/07/06 02:03:23;;;;;;;;;;;21.40;74.90;;;;;;4993364;28;1543;-71
2021/07/06 02:05:49;;;;;;;;;;;21.40;74.90;;;;;;4995239;28;1730;-71
2021/07/06 02:08:16;;;;;;;;;;;21.40;74.90;;;;;;4994604;28;1253;-71
2021/07/06 02:10:42;;;;;;;;;;;21.40;74.90;;;;;;4976946;28;1449;-71
2021/07/06 02:13:08;;;;;;;;;;;21.40;75.00;;;;;;4992516;28;1961;-71
2021/07/06 02:15:34;;;;;;;;;;;21.40;74.90;;;;;;4976951;28;1734;-71
2021/07/06 02:17:59;;;;;;;;;;;21.40;74.90;;;;;;4994268;28;1343;-71
2021/07/06 02:20:25;;;;;;;;;;;21.40;74.90;;;;;;4993589;28;1390;-71
2021/07/06 02:22:50;;;;;;;;;;;21.50;74.90;;;;;;4991915;28;1194;-71
2021/07/06 02:25:16;;;;;;;;;;;21.40;74.90;;;;;;4991305;28;1117;-71
2021/07/06 02:27:42;;;;;;;;;;;21.40;74.90;;;;;;4976872;28;1716;-71
2021/07/06 02:30:08;;;;;;;;;;;21.40;74.90;;;;;;4976648;28;1661;-73
2021/07/06 02:32:34;;;;;;;;;;;21.40;74.80;;;;;;4994109;28;1949;-73
2021/07/06 02:34:59;;;;;;;;;;;21.40;74.80;;;;;;4993864;28;1487;-73
2021/07/06 02:37:24;;;;;;;;;;;21.40;74.80;;;;;;4994336;28;887;-70
2021/07/06 02:39:50;;;;;;;;;;;21.40;74.80;;;;;;4993997;28;1686;-72
2021/07/06 02:42:15;;;;;;;;;;;21.40;74.90;;;;;;4993738;28;1435;-72
2021/07/06 02:44:41;;;;;;;;;;;21.40;74.90;;;;;;4975208;28;1648;-71
2021/07/06 02:47:06;;;;;;;;;;;21.40;74.80;;;;;;4992830;28;1058;-72
2021/07/06 02:49:32;;;;;;;;;;;21.50;74.90;;;;;;4992419;28;1355;-72
2021/07/06 02:51:57;;;;;;;;;;;21.40;74.90;;;;;;4993813;28;1132;-72
2021/07/06 02:54:23;;;;;;;;;;;21.40;74.90;;;;;;4992707;28;1964;-72
2021/07/06 02:56:48;;;;;;;;;;;21.40;74.90;;;;;;4993921;28;1065;-72
2021/07/06 02:59:13;;;;;;;;;;;21.40;74.90;;;;;;4993603;28;1271;-72
2021/07/06 03:01:39;;;;;;;;;;;21.40;74.90;;;;;;4976348;28;1070;-72
2021/07/06 03:04:04;;;;;;;;;;;21.40;74.90;;;;;;4992757;28;1081;-72
2021/07/06 03:06:30;;;;;;;;;;;21.40;74.90;;;;;;4993330;28;1070;-72
2021/07/06 03:08:56;;;;;;;;;;;21.40;74.90;;;;;;4993506;28;1374;-72
2021/07/06 03:11:22;;;;;;;;;;;21.40;74.90;;;;;;4975960;28;1390;-72
2021/07/06 03:13:47;;;;;;;;;;;21.40;74.90;;;;;;4975433;28;1906;-72
2021/07/06 03:16:13;;;;;;;;;;;21.40;74.90;;;;;;4993394;28;1140;-72
2021/07/06 03:18:38;;;;;;;;;;;21.40;74.90;;;;;;4993642;28;1221;-72
2021/07/06 03:21:03;;;;;;;;;;;21.40;74.90;;;;;;4975556;28;1141;-72
2021/07/06 03:23:29;;;;;;;;;;;21.40;74.90;;;;;;4975272;28;1093;-72
2021/07/06 03:25:55;;;;;;;;;;;21.40;74.80;;;;;;4975770;28;1093;-72
2021/07/06 03:28:20;;;;;;;;;;;21.40;74.90;;;;;;4993140;28;1465;-72
2021/07/06 03:30:45;;;;;;;;;;;21.40;74.90;;;;;;4993465;28;1129;-72
2021/07/06 03:33:11;;;;;;;;;;;21.40;74.90;;;;;;4992099;28;1961;-72
2021/07/06 03:35:36;;;;;;;;;;;21.40;74.90;;;;;;4975723;28;1086;-72
2021/07/06 03:38:02;;;;;;;;;;;21.40;74.90;;;;;;4975711;28;2188;-72
2021/07/06 03:40:28;;;;;;;;;;;21.40;74.90;;;;;;4993033;28;1097;-72
2021/07/06 03:42:53;;;;;;;;;;;21.40;74.80;;;;;;4974695;28;1200;-72
2021/07/06 03:45:19;;;;;;;;;;;21.40;74.80;;;;;;4975601;28;1097;-72
2021/07/06 03:47:44;;;;;;;;;;;21.40;74.80;;;;;;4993267;28;1145;-72
2021/07/06 03:50:11;;;;;;;;;;;21.40;74.80;;;;;;4975696;28;1228;-72
2021/07/06 03:52:36;;;;;;;;;;;21.40;74.90;;;;;;4975167;28;2027;-72
2021/07/06 03:55:02;;;;;;;;;;;21.40;74.80;;;;;;4975548;28;1122;-72
2021/07/06 03:57:30;;;;;;;;;;;21.40;74.80;;;;;;4996133;28;1054;-72
2021/07/06 04:00:00;;;;;;;;;;;21.40;74.90;;;;;;4999243;28;1210;-72
2021/07/06 04:02:25;;;;;;;;;;;21.40;74.90;;;;;;4999181;28;1034;-71
2021/07/06 04:04:51;;;;;;;;;;;21.40;74.80;;;;;;4998929;28;999;-72
2021/07/06 04:07:16;;;;;;;;;;;21.40;74.90;;;;;;4981881;28;1149;-72
2021/07/06 04:09:42;;;;;;;;;;;21.40;74.90;;;;;;4982043;28;1327;-72
2021/07/06 04:12:07;;;;;;;;;;;21.40;74.80;;;;;;4999281;28;1271;-72
2021/07/06 04:14:33;;;;;;;;;;;21.40;74.80;;;;;;4981109;28;1969;-72
2021/07/06 04:16:58;;;;;;;;;;;21.40;74.80;;;;;;4982033;28;1090;-72
2021/07/06 04:19:23;;;;;;;;;;;21.40;74.80;;;;;;4998577;28;1288;-72
2021/07/06 04:21:49;;;;;;;;;;;21.40;74.80;;;;;;4999103;28;1191;-72
2021/07/06 04:24:14;;;;;;;;;;;21.40;74.90;;;;;;4981086;28;1058;-72
2021/07/06 04:26:40;;;;;;;;;;;21.40;74.80;;;;;;4999264;28;1134;-71
2021/07/06 04:29:05;;;;;;;;;;;21.40;74.80;;;;;;4999002;28;1735;-72
2021/07/06 04:31:31;;;;;;;;;;;21.40;74.80;;;;;;4981532;28;1086;-72
2021/07/06 04:33:56;;;;;;;;;;;21.40;74.80;;;;;;4981403;28;1902;-72
2021/07/06 04:36:21;;;;;;;;;;;21.40;74.80;;;;;;4999314;28;1096;-72
2021/07/06 04:38:47;;;;;;;;;;;21.40;74.90;;;;;;4999090;28;1285;-71
2021/07/06 04:41:12;;;;;;;;;;;21.40;74.80;;;;;;4998563;28;1153;-72
2021/07/06 04:43:38;;;;;;;;;;;21.40;74.80;;;;;;4998468;28;1137;-72
2021/07/06 04:46:03;;;;;;;;;;;21.40;74.80;;;;;;4999139;28;1093;-72
2021/07/06 04:48:29;;;;;;;;;;;21.40;74.80;;;;;;4998645;28;1260;-72
2021/07/06 04:50:54;;;;;;;;;;;21.40;74.90;;;;;;4981746;28;1105;-72
2021/07/06 04:53:23;;;;;;;;;;;21.40;74.80;;;;;;4998858;28;1915;-71
2021/07/06 04:55:48;;;;;;;;;;;21.40;74.80;;;;;;4982026;28;1232;-71
2021/07/06 04:58:14;;;;;;;;;;;21.40;74.80;;;;;;4998982;28;1284;-72
2021/07/06 05:00:39;;;;;;;;;;;21.40;74.80;;;;;;4981626;28;1097;-71
2021/07/06 05:03:04;;;;;;;;;;;21.40;74.70;;;;;;4980481;28;1118;-72
2021/07/06 05:05:30;;;;;;;;;;;21.40;74.60;;;;;;4964933;28;1063;-71
2021/07/06 05:07:55;;;;;;;;;;;21.40;74.80;;;;;;4977367;28;1463;-74
2021/07/06 05:10:21;;;;;;;;;;;21.40;74.80;;;;;;4972456;28;1073;-74
2021/07/06 05:12:46;;;;;;;;;;;21.40;74.80;;;;;;4994698;28;1906;-73
2021/07/06 05:15:12;;;;;;;;;;;21.40;74.90;;;;;;4994415;28;1101;-69
2021/07/06 05:17:37;;;;;;;;;;;21.40;74.90;;;;;;4994795;28;1176;-69
2021/07/06 05:20:03;;;;;;;;;;;21.40;74.80;;;;;;4976563;28;1189;-69
2021/07/06 05:22:28;;;;;;;;;;;21.40;74.90;;;;;;4994858;28;1050;-71
2021/07/06 05:24:54;;;;;;;;;;;21.40;74.90;;;;;;4993634;28;1250;-72
2021/07/06 05:27:19;;;;;;;;;;;21.40;74.90;;;;;;4977245;28;1086;-73
2021/07/06 05:29:45;;;;;;;;;;;21.40;74.90;;;;;;4991110;28;1908;-70
2021/07/06 05:32:10;;;;;;;;;;;21.40;74.80;;;;;;4990662;28;914;-69
2021/07/06 05:34:36;;;;;;;;;;;21.40;74.80;;;;;;4993423;28;1955;-68
2021/07/06 05:37:01;;;;;;;;;;;21.40;74.90;;;;;;4994456;28;1061;-69
2021/07/06 05:39:27;;;;;;;;;;;21.40;74.80;;;;;;4976712;28;1287;-69
2021/07/06 05:41:52;;;;;;;;;;;21.40;74.90;;;;;;4994108;28;1125;-70
2021/07/06 05:44:17;;;;;;;;;;;21.40;74.90;;;;;;4993426;28;1046;-70
2021/07/06 05:46:43;;;;;;;;;;;21.40;74.80;;;;;;4976775;28;1149;-70
2021/07/06 05:49:08;;;;;;;;;;;21.50;74.90;;;;;;4976254;28;1373;-71
2021/07/06 05:51:34;;;;;;;;;;;21.40;74.80;;;;;;4994080;28;1059;-67
2021/07/06 05:53:59;;;;;;;;;;;21.40;74.90;;;;;;4976550;28;1906;-68
2021/07/06 05:56:24;;;;;;;;;;;21.40;74.90;;;;;;4976626;28;1141;-67
2021/07/06 05:58:50;;;;;;;;;;;21.40;74.90;;;;;;4993964;28;1291;-72
2021/07/06 06:01:16;;;;;;;;;;;21.40;74.90;;;;;;4993653;28;1157;-72
2021/07/06 06:03:41;;;;;;;;;;;21.50;74.90;;;;;;4975654;28;1058;-68
2021/07/06 06:06:09;;;;;;;;;;;21.40;74.90;;;;;;4994045;28;1699;-77
2021/07/06 06:08:36;;;;;;;;;;;21.40;74.90;;;;;;4993688;28;1284;-77
2021/07/06 06:11:02;;;;;;;;;;;21.40;74.90;;;;;;4959494;28;1202;-77
2021/07/06 06:13:27;;;;;;;;;;;21.40;74.90;;;;;;4994470;28;1957;-76
2021/07/06 06:15:53;;;;;;;;;;;21.40;74.90;;;;;;4977635;28;1054;-76
2021/07/06 06:18:18;;;;;;;;;;;21.40;74.90;;;;;;4993608;28;1239;-76
2021/07/06 06:20:44;;;;;;;;;;;21.40;74.90;;;;;;4995039;28;1542;-76
2021/07/06 06:23:09;;;;;;;;;;;21.40;74.80;;;;;;4994172;28;1046;-75
2021/07/06 06:25:34;;;;;;;;;;;21.40;74.90;;;;;;4977854;28;1015;-76
2021/07/06 06:28:00;;;;;;;;;;;21.50;74.90;;;;;;4994822;28;1668;-76
2021/07/06 06:30:25;;;;;;;;;;;21.40;74.90;;;;;;4994563;28;1200;-76
2021/07/06 06:32:52;;;;;;;;;;;21.40;74.90;;;;;;4976729;28;1902;-75
2021/07/06 06:35:18;;;;;;;;;;;21.50;74.90;;;;;;4993840;28;816;-77
2021/07/06 06:37:43;;;;;;;;;;;21.40;74.80;;;;;;4995023;28;833;-78
2021/07/06 06:40:09;;;;;;;;;;;21.50;74.80;;;;;;4977411;28;1380;-74
2021/07/06 06:42:35;;;;;;;;;;;21.50;74.80;;;;;;4993070;28;1685;-73
2021/07/06 06:45:01;;;;;;;;;;;21.50;74.90;;;;;;4993374;28;1128;-72
2021/07/06 06:47:26;;;;;;;;;;;21.50;74.80;;;;;;4976803;28;1206;-73
2021/07/06 06:49:52;;;;;;;;;;;21.40;74.80;;;;;;4976564;28;1562;-74
2021/07/06 06:52:17;;;;;;;;;;;21.50;74.80;;;;;;4976762;28;1672;-75
2021/07/06 06:54:43;;;;;;;;;;;21.50;74.70;;;;;;4993451;28;1963;-74
2021/07/06 06:57:08;;;;;;;;;;;21.50;74.70;;;;;;4977018;28;1264;-75
2021/07/06 06:59:33;;;;;;;;;;;21.50;74.70;;;;;;4993673;28;1432;-75
2021/07/06 07:02:17;;;;;;;;;;;21.50;74.70;;;;;;4985587;28;1400;-75
2021/07/06 07:04:50;;;;;;;;;;;21.50;74.70;;;;;;4964960;28;1201;-75
2021/07/06 07:07:15;;;;;;;;;;;21.50;74.60;;;;;;4994023;28;1491;-75
2021/07/06 07:09:41;;;;;;;;;;;21.50;74.60;;;;;;4976449;28;1221;-74
2021/07/06 07:12:07;;;;;;;;;;;21.50;74.60;;;;;;4992125;28;1575;-75
2021/07/06 07:14:32;;;;;;;;;;;21.50;74.60;;;;;;4975535;28;1902;-74
2021/07/06 07:16:57;;;;;;;;;;;21.50;74.60;;;;;;4993785;28;1371;-73
2021/07/06 07:19:23;;;;;;;;;;;21.50;74.60;;;;;;4960079;28;1202;-73
2021/07/06 07:21:48;;;;;;;;;;;21.50;74.70;;;;;;4976200;28;1694;-74
2021/07/06 07:24:15;;;;;;;;;;;21.50;74.60;;;;;;4991847;28;1850;-75
2021/07/06 07:26:40;;;;;;;;;;;21.50;74.60;;;;;;4992062;28;1968;-74
2021/07/06 07:29:06;;;;;;;;;;;21.40;74.50;;;;;;4993060;28;1359;-74
2021/07/06 07:31:31;;;;;;;;;;;21.50;74.70;;;;;;4991830;28;1225;-73
2021/07/06 07:33:57;;;;;;;;;;;21.50;74.60;;;;;;4992577;28;1969;-75
2021/07/06 07:36:22;;;;;;;;;;;21.50;74.70;;;;;;4978444;28;1081;-74
2021/07/06 07:38:48;;;;;;;;;;;21.50;74.60;;;;;;4975905;28;1667;-74
2021/07/06 07:41:13;;;;;;;;;;;21.50;74.70;;;;;;4992765;28;1156;-74
2021/07/06 07:43:39;;;;;;;;;;;21.50;74.60;;;;;;4992445;28;1093;-74
2021/07/06 07:46:05;;;;;;;;;;;21.50;74.60;;;;;;4992874;28;1109;-75
2021/07/06 07:48:30;;;;;;;;;;;21.50;74.60;;;;;;4992789;28;1351;-74
2021/07/06 07:50:56;;;;;;;;;;;21.50;74.60;;;;;;4992920;28;1204;-75
2021/07/06 07:53:21;;;;;;;;;;;21.40;74.50;;;;;;4992234;28;1961;-75
2021/07/06 07:55:47;;;;;;;;;;;21.50;74.60;;;;;;4993077;28;1082;-74
2021/07/06 07:58:12;;;;;;;;;;;21.50;74.60;;;;;;4975299;28;1343;-74
2021/07/06 08:00:38;;;;;;;;;;;21.50;74.60;;;;;;4975317;28;1245;-74
2021/07/06 08:03:03;;;;;;;;;;;21.50;74.60;;;;;;4974885;28;1189;-74
2021/07/06 08:05:28;;;;;;;;;;;21.50;74.60;;;;;;4975378;28;1090;-74
2021/07/06 08:07:54;;;;;;;;;;;21.50;74.60;;;;;;4959136;28;1282;-74
2021/07/06 08:10:19;;;;;;;;;;;21.50;74.60;;;;;;4992786;28;1053;-74
2021/07/06 08:12:45;;;;;;;;;;;21.50;74.60;;;;;;4992739;28;1962;-74
2021/07/06 08:15:10;;;;;;;;;;;21.50;74.70;;;;;;4991792;28;1066;-74
2021/07/06 08:17:36;;;;;;;;;;;21.50;74.70;;;;;;4975481;28;1082;-74
2021/07/06 08:20:03;;;;;;;;;;;21.50;74.70;;;;;;4975524;28;1235;-74
2021/07/06 08:22:29;;;;;;;;;;;21.50;74.80;;;;;;4992812;28;1121;-74
2021/07/06 08:24:54;;;;;;;;;;;21.50;74.60;;;;;;4992447;28;1105;-74
2021/07/06 08:27:20;;;;;;;;;;;21.50;74.70;;;;;;4974689;28;1149;-74
2021/07/06 08:29:45;;;;;;;;;;;21.50;74.70;;;;;;4975201;28;1322;-73
2021/07/06 08:32:11;;;;;;;;;;;21.50;74.70;;;;;;4975084;28;1268;-74
2021/07/06 08:34:36;;;;;;;;;;;21.50;74.70;;;;;;4992046;28;1907;-74
2021/07/06 08:37:01;;;;;;;;;;;21.50;74.80;;;;;;4992665;28;1077;-74
2021/07/06 08:39:28;;;;;;;;;;;21.50;74.80;;;;;;4992238;28;1268;-74
2021/07/06 08:41:53;;;;;;;;;;;21.50;74.80;;;;;;4992288;28;1121;-75
2021/07/06 08:44:21;;;;;;;;;;;21.50;74.90;;;;;;4993148;28;1124;-74
2021/07/06 08:46:46;;;;;;;;;;;21.50;74.80;;;;;;4979238;28;1110;-74
2021/07/06 08:49:12;;;;;;;;;;;21.50;74.80;;;;;;4978272;28;1266;-74
2021/07/06 08:51:38;;;;;;;;;;;21.50;74.80;;;;;;4996244;28;1073;-74
2021/07/06 08:54:04;;;;;;;;;;;21.50;75.00;;;;;;4977541;28;1972;-74
2021/07/06 08:56:29;;;;;;;;;;;21.50;75.00;;;;;;4996384;28;1121;-74
2021/07/06 08:58:54;;;;;;;;;;;21.50;74.90;;;;;;4978568;28;1279;-74
2021/07/06 09:01:24;;;;;;;;;;;21.50;75.00;;;;;;4996201;28;1270;-74
2021/07/06 09:03:56;;;;;;;;;;;21.50;75.10;;;;;;4977910;28;1149;-74
2021/07/06 09:06:22;;;;;;;;;;;21.50;75.10;;;;;;4978773;28;1149;-74
2021/07/06 09:08:51;;;;;;;;;;;21.50;75.10;;;;;;4961952;28;1292;-74
2021/07/06 09:11:17;;;;;;;;;;;21.50;75.10;;;;;;4995627;28;1196;-74
2021/07/06 09:13:42;;;;;;;;;;;21.50;75.10;;;;;;4993571;28;1960;-74
2021/07/06 09:16:08;;;;;;;;;;;21.50;75.10;;;;;;4995099;28;1176;-75
2021/07/06 09:18:33;;;;;;;;;;;21.50;75.00;;;;;;4994217;28;1308;-74
2021/07/06 09:21:08;;;;;;;;;;;21.50;74.90;;;;;;4995579;28;1073;-74
2021/07/06 09:23:37;;;;;;;;;;;21.50;75.00;;;;;;4977546;28;1101;-74
2021/07/06 09:26:03;;;;;;;;;;;21.50;74.90;;;;;;4978829;28;1090;-74
2021/07/06 09:28:30;;;;;;;;;;;21.50;74.90;;;;;;4995139;28;1192;-73
2021/07/06 09:30:59;;;;;;;;;;;21.50;74.90;;;;;;4995734;28;1141;-74
2021/07/06 09:33:26;;;;;;;;;;;21.50;74.90;;;;;;4994482;28;1906;-74
2021/07/06 09:35:51;;;;;;;;;;;21.50;75.10;;;;;;4961508;28;1550;-72
2021/07/06 09:38:17;;;;;;;;;;;21.50;75.10;;;;;;4977682;28;1395;-73
2021/07/06 09:40:43;;;;;;;;;;;21.50;75.20;;;;;;4995330;28;1101;-73
2021/07/06 09:43:18;;;;;;;;;;;21.50;75.20;;;;;;4977061;28;1158;-73
2021/07/06 09:45:48;;;;;;;;;;;21.50;75.10;;;;;;4995353;28;1069;-73
2021/07/06 09:48:13;;;;;;;;;;;21.50;75.10;;;;;;4977701;28;1349;-73
2021/07/06 09:50:39;;;;;;;;;;;21.50;75.20;;;;;;5012237;23;2051;-66
2021/07/06 09:53:04;;;;;;;;;;;21.50;75.20;;;;;;4997474;28;1891;-68
2021/07/06 09:55:30;;;;;;;;;;;21.50;75.20;;;;;;4976723;28;1511;-67
2021/07/06 09:57:56;;;;;;;;;;;21.50;75.30;;;;;;4977678;28;1079;-66
2021/07/06 10:00:21;;;;;;;;;;;21.50;75.30;;;;;;4994471;28;1296;-67
2021/07/06 10:02:46;;;;;;;;;;;21.50;75.40;;;;;;4993752;28;1232;-67
2021/07/06 10:05:14;;;;;;;;;;;21.50;75.40;;;;;;4994276;28;1101;-66
2021/07/06 10:07:40;;;;;;;;;;;21.50;75.50;;;;;;4993438;28;1121;-66
2021/07/06 10:10:13;;;;;;;;;;;21.50;75.50;;;;;;4995041;28;1405;-68
2021/07/06 10:12:39;;;;;;;;;;;21.50;75.50;;;;;;5006003;28;1958;-67
2021/07/06 10:15:06;;;;;;;;;;;21.50;75.50;;;;;;4977050;28;1810;-67
2021/07/06 10:17:31;;;;;;;;;;;21.50;75.40;;;;;;4993000;28;1168;-67
2021/07/06 10:19:56;;;;;;;;;;;21.50;75.50;;;;;;4993082;28;1296;-67
2021/07/06 10:22:22;;;;;;;;;;;21.50;75.50;;;;;;4992875;28;1054;-67
2021/07/06 10:24:47;;;;;;;;;;;21.50;75.50;;;;;;4993984;28;1054;-67
2021/07/06 10:27:14;;;;;;;;;;;21.50;75.50;;;;;;4992920;28;1128;-67
2021/07/06 10:29:41;;;;;;;;;;;21.50;75.50;;;;;;4993186;28;1332;-67
2021/07/06 10:32:06;;;;;;;;;;;21.50;75.50;;;;;;4994241;28;1105;-67
2021/07/06 10:34:41;;;;;;;;;;;21.50;75.40;;;;;;4993316;28;1953;-67
2021/07/06 10:37:18;;;;;;;;;;;21.50;75.40;;;;;;4992636;28;1073;-67
2021/07/06 10:39:44;;;;;;;;;;;21.50;75.40;;;;;;4992902;28;1260;-67
2021/07/06 10:42:10;;;;;;;;;;;21.50;75.40;;;;;;4994149;28;1061;-67
2021/07/06 10:44:37;;;;;;;;;;;21.50;75.50;;;;;;4992077;28;1105;-67
2021/07/06 10:47:03;;;;;;;;;;;21.50;75.80;;;;;;4993169;28;1077;-67
2021/07/06 10:49:30;;;;;;;;;;;21.50;75.90;;;;;;4993539;28;1347;-67
2021/07/06 10:51:56;;;;;;;;;;;21.60;75.80;;;;;;4992763;28;1321;-67
2021/07/06 10:54:27;;;;;;;;;;;21.60;75.70;;;;;;4993146;28;1982;-67
2021/07/06 10:56:53;;;;;;;;;;;21.60;75.70;;;;;;4982668;28;1681;-66
2021/07/06 10:59:20;;;;;;;;;;;21.60;75.60;;;;;;4974160;28;1328;-66
2021/07/06 11:01:46;;;;;;;;;;;21.60;75.60;;;;;;4971268;28;1089;-65
2021/07/06 11:04:12;;;;;;;;;;;21.50;75.40;;;;;;4990741;28;1141;-65
2021/07/06 11:06:40;;;;;;;;;;;21.50;75.40;;;;;;4991912;28;1117;-67
2021/07/06 11:09:06;;;;;;;;;;;21.50;75.50;;;;;;4993410;28;1237;-67
2021/07/06 11:11:34;;;;;;;;;;;21.50;75.40;;;;;;4987401;28;1172;-66
2021/07/06 11:14:19;;;;;;;;;;;21.50;75.40;;;;;;4991915;28;1977;-67
2021/07/06 11:16:57;;;;;;;;;;;21.50;75.40;;;;;;4992654;28;1106;-67
2021/07/06 11:19:35;;;;;;;;;;;21.50;75.40;;;;;;4992035;28;1247;-67
2021/07/06 11:22:11;;;;;;;;;;;21.50;75.30;;;;;;4991008;28;1188;-66
2021/07/06 11:24:42;;;;;;;;;;;21.50;75.30;;;;;;4990731;28;1133;-67
2021/07/06 11:27:08;;;;;;;;;;;21.50;75.40;;;;;;4992154;28;1007;-66
2021/07/06 11:29:34;;;;;;;;;;;21.50;75.40;;;;;;4992266;28;1259;-66
2021/07/06 11:32:04;;;;;;;;;;;21.50;75.40;;;;;;4991353;28;1156;-66
2021/07/06 11:34:33;;;;;;;;;;;21.50;75.40;;;;;;4990050;28;1898;-65
2021/07/06 11:36:58;;;;;;;;;;;21.50;75.40;;;;;;4989777;28;1663;-66
2021/07/06 11:39:24;;;;;;;;;;;21.50;75.30;;;;;;4977458;28;1358;-65
2021/07/06 11:41:49;;;;;;;;;;;21.50;75.20;;;;;;4988717;28;1160;-66
2021/07/06 11:44:18;;;;;;;;;;;21.50;75.20;;;;;;4986547;28;1090;-65
2021/07/06 11:46:44;;;;;;;;;;;21.50;75.10;;;;;;4992750;28;1089;-66
2021/07/06 11:49:09;;;;;;;;;;;21.50;75.10;;;;;;4992583;28;1248;-66
2021/07/06 11:51:37;;;;;;;;;;;21.50;75.10;;;;;;4993247;28;1157;-66
2021/07/06 11:54:03;;;;;;;;;;;21.50;75.10;;;;;;4991914;28;1967;-66
2021/07/06 11:56:29;;;;;;;;;;;21.50;75.10;;;;;;4992958;28;1109;-66
2021/07/06 11:58:55;;;;;;;;;;;21.50;75.10;;;;;;4991737;28;1366;-66
2021/07/06 12:01:20;;;;;;;;;;;21.50;75.10;;;;;;4991824;28;1169;-66
2021/07/06 12:03:47;;;;;;;;;;;21.50;75.00;;;;;;4992464;28;1089;-65
2021/07/06 12:06:16;;;;;;;;;;;21.50;75.10;;;;;;4993067;28;1116;-66
2021/07/06 12:08:42;;;;;;;;;;;21.50;75.30;;;;;;4991717;28;1268;-66
2021/07/06 12:11:08;;;;;;;;;;;21.50;75.30;;;;;;4991703;28;1077;-66
2021/07/06 12:13:34;;;;;;;;;;;21.60;75.20;;;;;;4992279;28;1918;-66
2021/07/06 12:16:02;;;;;;;;;;;21.50;75.30;;;;;;4992076;28;1062;-66
2021/07/06 12:18:28;;;;;;;;;;;21.50;75.50;;;;;;4986389;28;2194;-66
2021/07/06 12:20:57;;;;;;;;;;;21.60;75.60;;;;;;4996261;28;1279;-66
2021/07/06 12:23:23;;;;;;;;;;;21.60;75.70;;;;;;4996078;28;1109;-66
2021/07/06 12:25:52;;;;;;;;;;;21.60;75.80;;;;;;4995387;28;1356;-66
2021/07/06 12:28:17;;;;;;;;;;;21.60;75.70;;;;;;4995502;28;1085;-66
2021/07/06 12:30:43;;;;;;;;;;;21.60;75.80;;;;;;4994784;28;1255;-66
2021/07/06 12:33:08;;;;;;;;;;;21.60;76.10;;;;;;4993964;28;1958;-66
2021/07/06 12:35:34;;;;;;;;;;;21.60;76.20;;;;;;4996615;28;1058;-66
2021/07/06 12:38:06;;;;;;;;;;;21.60;76.00;;;;;;4996412;28;1164;-65
2021/07/06 12:40:31;;;;;;;;;;;21.60;76.00;;;;;;4992400;28;1231;-66
2021/07/06 12:42:57;;;;;;;;;;;21.60;76.20;;;;;;4994411;28;1195;-66
2021/07/06 12:45:23;;;;;;;;;;;21.60;76.10;;;;;;4996280;28;843;-65
2021/07/06 12:47:48;;;;;;;;;;;21.60;75.90;;;;;;4994807;28;1297;-66
2021/07/06 12:50:14;;;;;;;;;;;21.60;76.00;;;;;;4995866;28;1273;-66
2021/07/06 12:52:41;;;;;;;;;;;21.60;76.90;;;;;;4995028;28;1117;-66
2021/07/06 12:55:07;;;;;;;;;;;21.60;76.20;;;;;;4995796;28;1124;-66
2021/07/06 12:57:33;;;;;;;;;;;21.60;76.20;;;;;;4995691;28;1113;-66
2021/07/06 13:00:17;;;;;;;;;;;21.60;76.20;;;;;;4994748;28;1298;-66
2021/07/06 13:02:46;;;;;;;;;;;21.60;76.00;;;;;;4994781;28;1030;-66
2021/07/06 13:05:24;;;;;;;;;;;21.60;75.90;;;;;;4993924;28;1208;-67
2021/07/06 13:07:50;;;;;;;;;;;21.60;75.80;;;;;;4995779;28;1085;-66
2021/07/06 13:10:20;;;;;;;;;;;21.60;75.80;;;;;;4996249;28;1340;-66
2021/07/06 13:12:51;;;;;;;;;;;21.60;75.70;;;;;;5006133;28;1940;-66
2021/07/06 13:15:18;;;;;;;;;;;21.60;75.60;;;;;;4995447;28;1248;-67
2021/07/06 13:17:46;;;;;;;;;;;21.60;75.60;;;;;;4995811;28;1082;-66
2021/07/06 13:20:13;;;;;;;;;;;21.60;76.60;;;;;;4977758;28;1470;-67
2021/07/06 13:22:38;;;;;;;;;;;21.60;76.70;;;;;;4994607;28;1082;-67
2021/07/06 13:25:04;;;;;;;;;;;21.60;76.50;;;;;;4993490;28;1053;-66
2021/07/06 13:27:32;;;;;;;;;;;21.60;76.90;;;;;;4994460;28;1113;-66
2021/07/06 13:29:58;;;;;;;;;;;21.60;76.90;;;;;;4994732;28;1351;-67
2021/07/06 13:32:23;;;;;;;;;;;21.60;76.80;;;;;;4994249;28;1137;-67
2021/07/06 13:34:49;;;;;;;;;;;21.60;76.90;;;;;;4994671;28;1977;-66
2021/07/06 13:37:14;;;;;;;;;;;21.60;77.30;;;;;;4977908;28;1130;-67
2021/07/06 13:39:40;;;;;;;;;;;21.60;77.20;;;;;;4993671;28;1265;-67
2021/07/06 13:42:05;;;;;;;;;;;21.60;77.10;;;;;;4995084;28;1094;-67
2021/07/06 13:44:33;;;;;;;;;;;21.60;76.90;;;;;;4994554;28;1084;-67
2021/07/06 13:46:58;;;;;;;;;;;21.60;76.70;;;;;;4995312;28;1077;-67
2021/07/06 13:49:24;;;;;;;;;;;21.60;76.60;;;;;;4995263;28;1291;-67
2021/07/06 13:51:52;;;;;;;;;;;21.60;76.50;;;;;;4994919;28;1062;-67
2021/07/06 13:54:23;;;;;;;;;;;21.60;76.30;;;;;;4993567;28;1915;-67
2021/07/06 13:56:49;;;;;;;;;;;21.70;76.30;;;;;;4995208;28;1100;-68
2021/07/06 13:59:14;;;;;;;;;;;21.70;75.90;;;;;;4994783;28;1362;-69
2021/07/06 14:01:40;;;;;;;;;;;21.70;76.50;;;;;;4995276;28;1069;-68
2021/07/06 14:04:05;;;;;;;;;;;21.70;75.70;;;;;;4992848;28;1129;-68
2021/07/06 14:06:31;;;;;;;;;;;21.70;75.60;;;;;;4993555;28;1128;-67
2021/07/06 14:08:56;;;;;;;;;;;21.70;75.60;;;;;;4993129;28;1255;-68
2021/07/06 14:11:22;;;;;;;;;;;21.60;75.50;;;;;;5005272;28;1163;-68
2021/07/06 14:13:47;;;;;;;;;;;21.60;75.50;;;;;;4996702;28;1915;-68
2021/07/06 14:16:16;;;;;;;;;;;21.60;75.40;;;;;;4994770;28;1074;-68
2021/07/06 14:18:42;;;;;;;;;;;21.60;75.30;;;;;;4994642;28;1239;-68
2021/07/06 14:21:07;;;;;;;;;;;21.60;75.30;;;;;;4993565;28;1113;-68
2021/07/06 14:23:33;;;;;;;;;;;21.60;75.40;;;;;;4994362;28;1342;-67
2021/07/06 14:26:02;;;;;;;;;;;21.60;75.40;;;;;;4994279;28;1097;-68